Fairchance, Pennsylvania
Current Conditions -  °F | °C
As of 9:53 AM on Saturday 25 Oct 2014 (Local Time) from KMGW Reporting Station
Overcast Overcast  
Wind Chill: 11°   Ceiling: 3700
Heat Index: 11°   Visibility: 10mi
Dew Point:   Wind: 6mph
Humidity: 63%   Direction: 220°SW
Pressure: 30.01"   Gusts: NA
Location:  39.82°N, 79.75°W
Report Text: KMGW 251353Z 22005KT 10SM OVC037 11/04 A3001 RMK AO2 SLP164 T01110044
Loading
Personal Weather Stations






























Interactive Weather Map
Tropical Storm Tracking
New forecast layout! Learn more

10-Day Weather Forecast

Advertisements
Track Severe Weather on mobile